sensor_id;sensor_type;location;lat;lon;timestamp;temperature;humidity
21019;DHT22;10667;51.056;3.732;2023-02-28T00:00:13;4.90;99.90
21019;DHT22;10667;51.056;3.732;2023-02-28T00:02:40;4.90;99.90
21019;DHT22;10667;51.056;3.732;2023-02-28T00:05:08;4.90;99.90
21019;DHT22;10667;51.056;3.732;2023-02-28T00:07:34;5.00;99.90
21019;DHT22;10667;51.056;3.732;2023-02-28T00:10:00;4.90;99.90
21019;DHT22;10667;51.056;3.732;2023-02-28T00:12:27;5.00;99.90
21019;DHT22;10667;51.056;3.732;2023-02-28T00:14:53;4.90;99.90
21019;DHT22;10667;51.056;3.732;2023-02-28T00:17:19;4.90;99.90
21019;DHT22;10667;51.056;3.732;2023-02-28T00:19:50;4.90;99.90
21019;DHT22;10667;51.056;3.732;2023-02-28T00:22:18;5.00;99.90
21019;DHT22;10667;51.056;3.732;2023-02-28T00:24:44;5.00;99.90
21019;DHT22;10667;51.056;3.732;2023-02-28T00:27:10;5.00;99.90
21019;DHT22;10667;51.056;3.732;2023-02-28T00:29:36;4.80;99.90
21019;DHT22;10667;51.056;3.732;2023-02-28T00:32:03;4.90;99.90
21019;DHT22;10667;51.056;3.732;2023-02-28T00:34:28;4.90;99.90
21019;DHT22;10667;51.056;3.732;2023-02-28T00:36:54;4.90;99.90
21019;DHT22;10667;51.056;3.732;2023-02-28T00:39:20;4.90;99.90
21019;DHT22;10667;51.056;3.732;2023-02-28T00:41:46;4.80;99.90
21019;DHT22;10667;51.056;3.732;2023-02-28T00:44:11;4.90;99.90
21019;DHT22;10667;51.056;3.732;2023-02-28T00:46:37;4.90;99.90
21019;DHT22;10667;51.056;3.732;2023-02-28T00:49:03;4.80;99.90
21019;DHT22;10667;51.056;3.732;2023-02-28T00:51:28;4.90;99.90
21019;DHT22;10667;51.056;3.732;2023-02-28T00:53:54;4.80;99.90
21019;DHT22;10667;51.056;3.732;2023-02-28T00:56:20;4.80;99.90
21019;DHT22;10667;51.056;3.732;2023-02-28T00:58:46;4.70;99.90
21019;DHT22;10667;51.056;3.732;2023-02-28T01:01:12;4.90;99.90
21019;DHT22;10667;51.056;3.732;2023-02-28T01:03:37;4.80;99.90
21019;DHT22;10667;51.056;3.732;2023-02-28T01:06:04;4.70;99.90
21019;DHT22;10667;51.056;3.732;2023-02-28T01:08:29;4.70;99.90
21019;DHT22;10667;51.056;3.732;2023-02-28T01:10:55;4.60;99.90
21019;DHT22;10667;51.056;3.732;2023-02-28T01:13:21;4.60;99.90
21019;DHT22;10667;51.056;3.732;2023-02-28T01:15:54;4.70;99.90
21019;DHT22;10667;51.056;3.732;2023-02-28T01:18:21;4.70;99.90
21019;DHT22;10667;51.056;3.732;2023-02-28T01:20:47;4.70;99.90
21019;DHT22;10667;51.056;3.732;2023-02-28T01:23:13;4.70;99.90
21019;DHT22;10667;51.056;3.732;2023-02-28T01:25:39;4.70;99.90
21019;DHT22;10667;51.056;3.732;2023-02-28T01:28:05;4.70;99.90
21019;DHT22;10667;51.056;3.732;2023-02-28T01:30:32;4.70;99.90
21019;DHT22;10667;51.056;3.732;2023-02-28T01:32:58;4.70;99.90
21019;DHT22;10667;51.056;3.732;2023-02-28T01:35:24;4.60;99.90
21019;DHT22;10667;51.056;3.732;2023-02-28T01:37:50;4.60;99.90
21019;DHT22;10667;51.056;3.732;2023-02-28T01:40:16;4.60;99.90
21019;DHT22;10667;51.056;3.732;2023-02-28T01:42:41;4.60;99.90
21019;DHT22;10667;51.056;3.732;2023-02-28T01:45:26;4.60;99.90
21019;DHT22;10667;51.056;3.732;2023-02-28T01:47:55;4.60;99.90
21019;DHT22;10667;51.056;3.732;2023-02-28T01:50:28;4.60;99.90
21019;DHT22;10667;51.056;3.732;2023-02-28T01:52:58;4.50;99.90
21019;DHT22;10667;51.056;3.732;2023-02-28T01:55:25;4.50;99.90
21019;DHT22;10667;51.056;3.732;2023-02-28T01:57:57;4.40;99.90
21019;DHT22;10667;51.056;3.732;2023-02-28T02:00:26;4.40;99.90
21019;DHT22;10667;51.056;3.732;2023-02-28T02:02:55;4.40;99.90
21019;DHT22;10667;51.056;3.732;2023-02-28T02:05:25;4.60;99.90
21019;DHT22;10667;51.056;3.732;2023-02-28T02:07:54;4.50;99.90
21019;DHT22;10667;51.056;3.732;2023-02-28T02:10:41;4.40;99.90
21019;DHT22;10667;51.056;3.732;2023-02-28T02:18:47;4.40;99.90
21019;DHT22;10667;51.056;3.732;2023-02-28T02:37:53;4.30;99.90
21019;DHT22;10667;51.056;3.732;2023-02-28T02:40:23;4.20;99.90
21019;DHT22;10667;51.056;3.732;2023-02-28T02:45:50;4.00;99.90
21019;DHT22;10667;51.056;3.732;2023-02-28T02:48:20;3.90;99.90
21019;DHT22;10667;51.056;3.732;2023-02-28T02:50:53;4.10;99.90
21019;DHT22;10667;51.056;3.732;2023-02-28T02:53:30;4.00;99.90
21019;DHT22;10667;51.056;3.732;2023-02-28T02:55:59;4.10;99.90
21019;DHT22;10667;51.056;3.732;2023-02-28T02:58:29;4.10;99.90
21019;DHT22;10667;51.056;3.732;2023-02-28T03:00:58;4.10;99.90
21019;DHT22;10667;51.056;3.732;2023-02-28T03:03:27;4.00;99.90
21019;DHT22;10667;51.056;3.732;2023-02-28T03:06:00;4.10;99.90
21019;DHT22;10667;51.056;3.732;2023-02-28T03:08:27;4.10;99.90
21019;DHT22;10667;51.056;3.732;2023-02-28T03:10:59;4.10;99.90
21019;DHT22;10667;51.056;3.732;2023-02-28T03:16:32;4.00;99.90
21019;DHT22;10667;51.056;3.732;2023-02-28T03:22:19;4.10;99.90
21019;DHT22;10667;51.056;3.732;2023-02-28T03:25:17;4.10;99.90
21019;DHT22;10667;51.056;3.732;2023-02-28T03:33:24;4.10;99.90
21019;DHT22;10667;51.056;3.732;2023-02-28T03:36:08;4.10;99.90
21019;DHT22;10667;51.056;3.732;2023-02-28T03:39:07;4.00;99.90
21019;DHT22;10667;51.056;3.732;2023-02-28T03:41:36;3.90;99.90
21019;DHT22;10667;51.056;3.732;2023-02-28T03:44:10;4.00;99.90
21019;DHT22;10667;51.056;3.732;2023-02-28T03:46:44;4.10;99.90
21019;DHT22;10667;51.056;3.732;2023-02-28T03:49:26;4.30;99.90
21019;DHT22;10667;51.056;3.732;2023-02-28T03:51:54;4.20;99.90
21019;DHT22;10667;51.056;3.732;2023-02-28T03:54:45;4.20;99.90
21019;DHT22;10667;51.056;3.732;2023-02-28T03:57:21;4.30;99.90
21019;DHT22;10667;51.056;3.732;2023-02-28T03:59:56;4.30;99.90
21019;DHT22;10667;51.056;3.732;2023-02-28T04:02:23;4.20;99.90
21019;DHT22;10667;51.056;3.732;2023-02-28T04:04:48;4.20;99.90
21019;DHT22;10667;51.056;3.732;2023-02-28T04:07:14;4.30;99.90
21019;DHT22;10667;51.056;3.732;2023-02-28T04:09:41;4.20;99.90
21019;DHT22;10667;51.056;3.732;2023-02-28T04:12:07;4.20;99.90
21019;DHT22;10667;51.056;3.732;2023-02-28T04:14:32;4.20;99.90
21019;DHT22;10667;51.056;3.732;2023-02-28T04:16:58;4.20;99.90
21019;DHT22;10667;51.056;3.732;2023-02-28T04:19:24;4.40;99.90
21019;DHT22;10667;51.056;3.732;2023-02-28T04:21:51;4.50;99.90
21019;DHT22;10667;51.056;3.732;2023-02-28T04:24:20;4.50;99.90
21019;DHT22;10667;51.056;3.732;2023-02-28T04:26:49;4.50;99.90
21019;DHT22;10667;51.056;3.732;2023-02-28T04:29:26;4.50;99.90
21019;DHT22;10667;51.056;3.732;2023-02-28T04:31:52;4.40;99.90
21019;DHT22;10667;51.056;3.732;2023-02-28T04:34:19;4.50;99.90
21019;DHT22;10667;51.056;3.732;2023-02-28T04:36:45;4.50;99.90
21019;DHT22;10667;51.056;3.732;2023-02-28T04:39:21;4.60;99.90
21019;DHT22;10667;51.056;3.732;2023-02-28T04:41:47;4.60;99.90
21019;DHT22;10667;51.056;3.732;2023-02-28T04:44:13;4.70;99.90
21019;DHT22;10667;51.056;3.732;2023-02-28T04:46:40;4.80;99.90
21019;DHT22;10667;51.056;3.732;2023-02-28T04:49:06;4.90;99.90
21019;DHT22;10667;51.056;3.732;2023-02-28T04:51:31;4.90;99.90
21019;DHT22;10667;51.056;3.732;2023-02-28T04:53:57;4.80;99.90
21019;DHT22;10667;51.056;3.732;2023-02-28T04:56:23;4.80;99.90
21019;DHT22;10667;51.056;3.732;2023-02-28T04:58:49;4.80;99.90
21019;DHT22;10667;51.056;3.732;2023-02-28T05:01:27;4.80;99.90
21019;DHT22;10667;51.056;3.732;2023-02-28T05:03:55;4.90;99.90
21019;DHT22;10667;51.056;3.732;2023-02-28T05:06:23;4.90;99.90
21019;DHT22;10667;51.056;3.732;2023-02-28T05:08:49;4.80;99.90
21019;DHT22;10667;51.056;3.732;2023-02-28T05:11:19;4.80;99.90
21019;DHT22;10667;51.056;3.732;2023-02-28T05:13:46;4.80;99.90
21019;DHT22;10667;51.056;3.732;2023-02-28T05:16:13;4.80;99.90
21019;DHT22;10667;51.056;3.732;2023-02-28T05:18:39;4.80;99.90
21019;DHT22;10667;51.056;3.732;2023-02-28T05:21:05;4.80;99.90
21019;DHT22;10667;51.056;3.732;2023-02-28T05:23:30;4.80;99.90
21019;DHT22;10667;51.056;3.732;2023-02-28T05:25:57;4.90;99.90
21019;DHT22;10667;51.056;3.732;2023-02-28T05:28:22;4.90;99.90
21019;DHT22;10667;51.056;3.732;2023-02-28T05:30:48;4.90;99.90
21019;DHT22;10667;51.056;3.732;2023-02-28T05:33:14;4.80;99.90
21019;DHT22;10667;51.056;3.732;2023-02-28T05:35:41;4.80;99.90
21019;DHT22;10667;51.056;3.732;2023-02-28T05:38:08;4.90;99.90
21019;DHT22;10667;51.056;3.732;2023-02-28T05:40:34;4.80;99.90
21019;DHT22;10667;51.056;3.732;2023-02-28T05:43:00;4.70;99.90
21019;DHT22;10667;51.056;3.732;2023-02-28T05:45:26;4.70;99.90
21019;DHT22;10667;51.056;3.732;2023-02-28T05:47:55;4.70;99.90
21019;DHT22;10667;51.056;3.732;2023-02-28T05:50:21;4.70;99.90
21019;DHT22;10667;51.056;3.732;2023-02-28T05:52:53;4.70;99.90
21019;DHT22;10667;51.056;3.732;2023-02-28T05:55:19;4.80;99.90
21019;DHT22;10667;51.056;3.732;2023-02-28T05:57:44;4.80;99.90
21019;DHT22;10667;51.056;3.732;2023-02-28T06:00:11;4.80;99.90
21019;DHT22;10667;51.056;3.732;2023-02-28T06:02:39;4.90;99.90
21019;DHT22;10667;51.056;3.732;2023-02-28T06:05:05;4.80;99.90
21019;DHT22;10667;51.056;3.732;2023-02-28T06:07:31;4.80;99.90
21019;DHT22;10667;51.056;3.732;2023-02-28T06:09:57;4.80;99.90
21019;DHT22;10667;51.056;3.732;2023-02-28T06:12:22;4.80;99.90
21019;DHT22;10667;51.056;3.732;2023-02-28T06:14:48;4.80;99.90
21019;DHT22;10667;51.056;3.732;2023-02-28T06:17:14;4.70;99.90
21019;DHT22;10667;51.056;3.732;2023-02-28T06:19:39;4.60;99.90
21019;DHT22;10667;51.056;3.732;2023-02-28T06:22:07;4.70;99.90
21019;DHT22;10667;51.056;3.732;2023-02-28T06:24:32;4.80;99.90
21019;DHT22;10667;51.056;3.732;2023-02-28T06:26:59;4.70;99.90
21019;DHT22;10667;51.056;3.732;2023-02-28T06:29:31;4.80;99.90
21019;DHT22;10667;51.056;3.732;2023-02-28T06:31:57;4.90;99.90
21019;DHT22;10667;51.056;3.732;2023-02-28T06:34:22;4.90;99.90
21019;DHT22;10667;51.056;3.732;2023-02-28T06:36:50;4.90;99.90
21019;DHT22;10667;51.056;3.732;2023-02-28T06:39:17;4.90;99.90
21019;DHT22;10667;51.056;3.732;2023-02-28T06:41:43;4.90;99.90
21019;DHT22;10667;51.056;3.732;2023-02-28T06:44:16;5.10;99.90
21019;DHT22;10667;51.056;3.732;2023-02-28T06:46:44;5.20;99.90
21019;DHT22;10667;51.056;3.732;2023-02-28T06:49:10;5.10;99.90
21019;DHT22;10667;51.056;3.732;2023-02-28T06:51:38;5.10;99.90
21019;DHT22;10667;51.056;3.732;2023-02-28T06:54:04;5.00;99.90
21019;DHT22;10667;51.056;3.732;2023-02-28T06:56:30;5.10;99.90
21019;DHT22;10667;51.056;3.732;2023-02-28T06:58:56;5.00;99.90
21019;DHT22;10667;51.056;3.732;2023-02-28T07:01:22;5.10;99.90
21019;DHT22;10667;51.056;3.732;2023-02-28T07:03:49;5.10;99.90
21019;DHT22;10667;51.056;3.732;2023-02-28T07:06:21;5.10;99.90
21019;DHT22;10667;51.056;3.732;2023-02-28T07:08:48;5.20;99.90
21019;DHT22;10667;51.056;3.732;2023-02-28T07:11:14;5.00;99.90
21019;DHT22;10667;51.056;3.732;2023-02-28T07:13:40;5.10;99.90
21019;DHT22;10667;51.056;3.732;2023-02-28T07:16:09;5.10;99.90
21019;DHT22;10667;51.056;3.732;2023-02-28T07:18:35;5.10;99.90
21019;DHT22;10667;51.056;3.732;2023-02-28T07:21:07;5.30;99.90
21019;DHT22;10667;51.056;3.732;2023-02-28T07:23:33;5.30;99.90
21019;DHT22;10667;51.056;3.732;2023-02-28T07:25:59;5.20;99.90
21019;DHT22;10667;51.056;3.732;2023-02-28T07:28:25;5.10;99.90
21019;DHT22;10667;51.056;3.732;2023-02-28T07:30:51;5.20;99.90
21019;DHT22;10667;51.056;3.732;2023-02-28T07:33:17;5.30;99.90
21019;DHT22;10667;51.056;3.732;2023-02-28T07:35:42;5.30;99.90
21019;DHT22;10667;51.056;3.732;2023-02-28T07:38:08;5.30;99.90
21019;DHT22;10667;51.056;3.732;2023-02-28T07:40:35;5.20;99.90
21019;DHT22;10667;51.056;3.732;2023-02-28T07:43:01;5.30;99.90
21019;DHT22;10667;51.056;3.732;2023-02-28T07:45:27;5.20;99.90
21019;DHT22;10667;51.056;3.732;2023-02-28T07:47:54;5.20;99.90
21019;DHT22;10667;51.056;3.732;2023-02-28T07:50:20;5.20;99.90
21019;DHT22;10667;51.056;3.732;2023-02-28T07:52:46;5.20;99.90
21019;DHT22;10667;51.056;3.732;2023-02-28T07:55:11;5.20;99.90
21019;DHT22;10667;51.056;3.732;2023-02-28T07:57:37;5.30;99.90
21019;DHT22;10667;51.056;3.732;2023-02-28T08:00:04;5.30;99.90
21019;DHT22;10667;51.056;3.732;2023-02-28T08:02:30;5.30;99.90
21019;DHT22;10667;51.056;3.732;2023-02-28T08:04:56;5.40;99.90
21019;DHT22;10667;51.056;3.732;2023-02-28T08:07:21;5.20;99.90
21019;DHT22;10667;51.056;3.732;2023-02-28T08:09:47;5.30;99.90
21019;DHT22;10667;51.056;3.732;2023-02-28T08:12:13;5.40;99.90
21019;DHT22;10667;51.056;3.732;2023-02-28T08:14:39;5.50;99.90
21019;DHT22;10667;51.056;3.732;2023-02-28T08:17:05;5.50;99.90
21019;DHT22;10667;51.056;3.732;2023-02-28T08:19:31;5.50;99.90
21019;DHT22;10667;51.056;3.732;2023-02-28T08:21:57;5.60;99.90
21019;DHT22;10667;51.056;3.732;2023-02-28T08:24:24;5.60;99.90
21019;DHT22;10667;51.056;3.732;2023-02-28T08:26:50;5.60;99.90
21019;DHT22;10667;51.056;3.732;2023-02-28T08:29:15;5.60;99.90
21019;DHT22;10667;51.056;3.732;2023-02-28T08:31:42;5.60;99.90
21019;DHT22;10667;51.056;3.732;2023-02-28T08:34:09;5.60;99.90
21019;DHT22;10667;51.056;3.732;2023-02-28T08:36:36;5.60;99.90
21019;DHT22;10667;51.056;3.732;2023-02-28T08:39:03;5.60;99.90
21019;DHT22;10667;51.056;3.732;2023-02-28T08:41:28;5.60;99.90
21019;DHT22;10667;51.056;3.732;2023-02-28T08:43:54;5.60;99.90
21019;DHT22;10667;51.056;3.732;2023-02-28T08:46:20;5.70;99.90
21019;DHT22;10667;51.056;3.732;2023-02-28T08:48:46;5.70;99.90
21019;DHT22;10667;51.056;3.732;2023-02-28T08:51:17;5.80;99.90
21019;DHT22;10667;51.056;3.732;2023-02-28T08:53:52;5.80;99.90
21019;DHT22;10667;51.056;3.732;2023-02-28T08:56:19;5.70;99.90
21019;DHT22;10667;51.056;3.732;2023-02-28T08:58:46;5.70;99.90
21019;DHT22;10667;51.056;3.732;2023-02-28T09:01:20;5.70;99.90
21019;DHT22;10667;51.056;3.732;2023-02-28T09:03:48;5.80;99.90
21019;DHT22;10667;51.056;3.732;2023-02-28T09:06:15;5.90;99.90
21019;DHT22;10667;51.056;3.732;2023-02-28T09:08:41;6.00;99.90
21019;DHT22;10667;51.056;3.732;2023-02-28T09:11:08;6.10;99.90
21019;DHT22;10667;51.056;3.732;2023-02-28T09:13:34;6.10;99.90
21019;DHT22;10667;51.056;3.732;2023-02-28T09:16:01;6.00;99.90
21019;DHT22;10667;51.056;3.732;2023-02-28T09:18:27;5.90;99.90
21019;DHT22;10667;51.056;3.732;2023-02-28T09:20:53;5.80;99.90
21019;DHT22;10667;51.056;3.732;2023-02-28T09:23:19;5.80;99.90
21019;DHT22;10667;51.056;3.732;2023-02-28T09:25:47;5.80;99.90
21019;DHT22;10667;51.056;3.732;2023-02-28T09:28:13;6.00;99.90
21019;DHT22;10667;51.056;3.732;2023-02-28T09:30:41;6.10;99.90
21019;DHT22;10667;51.056;3.732;2023-02-28T09:33:07;6.10;99.90
21019;DHT22;10667;51.056;3.732;2023-02-28T09:35:33;6.00;99.90
21019;DHT22;10667;51.056;3.732;2023-02-28T09:37:58;6.00;99.90
21019;DHT22;10667;51.056;3.732;2023-02-28T09:40:25;6.00;99.90
21019;DHT22;10667;51.056;3.732;2023-02-28T09:42:54;6.10;99.90
21019;DHT22;10667;51.056;3.732;2023-02-28T09:45:31;6.20;99.90
21019;DHT22;10667;51.056;3.732;2023-02-28T09:48:06;6.00;99.90
21019;DHT22;10667;51.056;3.732;2023-02-28T09:50:39;6.10;99.90
21019;DHT22;10667;51.056;3.732;2023-02-28T09:53:25;6.00;99.90
21019;DHT22;10667;51.056;3.732;2023-02-28T09:55:58;6.00;99.90
21019;DHT22;10667;51.056;3.732;2023-02-28T09:59:05;6.00;99.90
21019;DHT22;10667;51.056;3.732;2023-02-28T10:02:03;5.90;99.90
21019;DHT22;10667;51.056;3.732;2023-02-28T10:04:47;5.90;99.90
21019;DHT22;10667;51.056;3.732;2023-02-28T10:10:29;6.00;99.90
21019;DHT22;10667;51.056;3.732;2023-02-28T10:12:57;6.10;99.90
21019;DHT22;10667;51.056;3.732;2023-02-28T10:15:25;6.20;99.90
21019;DHT22;10667;51.056;3.732;2023-02-28T10:18:00;6.30;99.90
21019;DHT22;10667;51.056;3.732;2023-02-28T10:20:31;6.30;99.90
21019;DHT22;10667;51.056;3.732;2023-02-28T10:25:47;6.20;99.90
21019;DHT22;10667;51.056;3.732;2023-02-28T10:28:16;6.10;99.90
21019;DHT22;10667;51.056;3.732;2023-02-28T10:30:51;6.20;99.90
21019;DHT22;10667;51.056;3.732;2023-02-28T10:33:18;6.30;99.90
21019;DHT22;10667;51.056;3.732;2023-02-28T10:35:45;6.40;99.90
21019;DHT22;10667;51.056;3.732;2023-02-28T10:38:17;6.30;99.90
21019;DHT22;10667;51.056;3.732;2023-02-28T10:40:43;6.40;99.90
21019;DHT22;10667;51.056;3.732;2023-02-28T10:46:03;6.50;99.90
21019;DHT22;10667;51.056;3.732;2023-02-28T10:48:33;6.50;99.90
21019;DHT22;10667;51.056;3.732;2023-02-28T10:51:00;6.50;99.90
21019;DHT22;10667;51.056;3.732;2023-02-28T11:04:00;6.80;99.90
21019;DHT22;10667;51.056;3.732;2023-02-28T11:06:30;6.80;99.90
21019;DHT22;10667;51.056;3.732;2023-02-28T11:09:06;7.00;99.90
21019;DHT22;10667;51.056;3.732;2023-02-28T11:11:44;7.20;99.90
21019;DHT22;10667;51.056;3.732;2023-02-28T11:14:28;7.20;98.50
21019;DHT22;10667;51.056;3.732;2023-02-28T11:17:03;7.10;98.40
21019;DHT22;10667;51.056;3.732;2023-02-28T11:19:40;7.10;97.60
21019;DHT22;10667;51.056;3.732;2023-02-28T11:22:09;7.00;98.20
21019;DHT22;10667;51.056;3.732;2023-02-28T11:24:48;6.90;98.50
21019;DHT22;10667;51.056;3.732;2023-02-28T11:29:51;6.90;99.30
21019;DHT22;10667;51.056;3.732;2023-02-28T11:32:20;7.10;98.90
21019;DHT22;10667;51.056;3.732;2023-02-28T11:34:59;7.30;99.00
21019;DHT22;10667;51.056;3.732;2023-02-28T11:37:26;7.30;98.00
21019;DHT22;10667;51.056;3.732;2023-02-28T11:39:52;7.40;97.40
21019;DHT22;10667;51.056;3.732;2023-02-28T11:47:57;7.30;97.10
21019;DHT22;10667;51.056;3.732;2023-02-28T11:56:23;7.30;95.50
21019;DHT22;10667;51.056;3.732;2023-02-28T11:59:14;7.30;95.70
21019;DHT22;10667;51.056;3.732;2023-02-28T12:04:25;7.40;95.80
21019;DHT22;10667;51.056;3.732;2023-02-28T12:07:25;7.50;94.90
21019;DHT22;10667;51.056;3.732;2023-02-28T12:09:56;7.60;94.50
21019;DHT22;10667;51.056;3.732;2023-02-28T12:12:38;7.60;93.70
21019;DHT22;10667;51.056;3.732;2023-02-28T12:18:04;7.60;93.70
21019;DHT22;10667;51.056;3.732;2023-02-28T12:20:44;7.80;91.10
21019;DHT22;10667;51.056;3.732;2023-02-28T12:28:53;7.60;89.10
21019;DHT22;10667;51.056;3.732;2023-02-28T12:31:29;7.40;89.30
21019;DHT22;10667;51.056;3.732;2023-02-28T12:34:10;7.30;89.30
21019;DHT22;10667;51.056;3.732;2023-02-28T12:36:37;7.20;90.20
21019;DHT22;10667;51.056;3.732;2023-02-28T12:39:16;7.40;89.80
21019;DHT22;10667;51.056;3.732;2023-02-28T12:41:58;7.40;90.00
21019;DHT22;10667;51.056;3.732;2023-02-28T12:44:35;7.40;87.10
21019;DHT22;10667;51.056;3.732;2023-02-28T12:47:05;7.60;85.00
21019;DHT22;10667;51.056;3.732;2023-02-28T12:52:11;7.60;83.10
21019;DHT22;10667;51.056;3.732;2023-02-28T13:00:16;7.60;77.90
21019;DHT22;10667;51.056;3.732;2023-02-28T13:05:58;7.50;77.60
21019;DHT22;10667;51.056;3.732;2023-02-28T13:19:30;7.50;72.90
21019;DHT22;10667;51.056;3.732;2023-02-28T13:21:58;7.70;71.60
21019;DHT22;10667;51.056;3.732;2023-02-28T13:24:46;7.70;71.50
21019;DHT22;10667;51.056;3.732;2023-02-28T13:27:37;7.60;73.80
21019;DHT22;10667;51.056;3.732;2023-02-28T13:33:30;7.70;71.40
21019;DHT22;10667;51.056;3.732;2023-02-28T13:38:43;7.80;69.30
21019;DHT22;10667;51.056;3.732;2023-02-28T13:46:38;7.60;69.80
21019;DHT22;10667;51.056;3.732;2023-02-28T13:49:32;7.60;71.70
21019;DHT22;10667;51.056;3.732;2023-02-28T13:57:58;7.70;71.70
21019;DHT22;10667;51.056;3.732;2023-02-28T14:06:54;8.00;68.50
21019;DHT22;10667;51.056;3.732;2023-02-28T14:09:35;7.90;67.60
21019;DHT22;10667;51.056;3.732;2023-02-28T14:15:26;7.70;71.50
21019;DHT22;10667;51.056;3.732;2023-02-28T14:17:54;7.50;70.50
21019;DHT22;10667;51.056;3.732;2023-02-28T14:20:22;7.70;70.90
21019;DHT22;10667;51.056;3.732;2023-02-28T14:25:55;7.90;68.80
21019;DHT22;10667;51.056;3.732;2023-02-28T14:31:15;7.80;69.70
21019;DHT22;10667;51.056;3.732;2023-02-28T14:36:41;7.80;70.30
21019;DHT22;10667;51.056;3.732;2023-02-28T14:39:16;7.80;69.30
21019;DHT22;10667;51.056;3.732;2023-02-28T14:41:43;7.90;68.00
21019;DHT22;10667;51.056;3.732;2023-02-28T14:44:27;7.90;69.10
21019;DHT22;10667;51.056;3.732;2023-02-28T14:46:56;8.00;69.10
21019;DHT22;10667;51.056;3.732;2023-02-28T14:49:36;7.90;69.80
21019;DHT22;10667;51.056;3.732;2023-02-28T14:54:39;7.60;72.70
21019;DHT22;10667;51.056;3.732;2023-02-28T14:57:05;7.80;69.20
21019;DHT22;10667;51.056;3.732;2023-02-28T14:59:34;7.80;69.70
21019;DHT22;10667;51.056;3.732;2023-02-28T15:02:34;7.80;70.40
21019;DHT22;10667;51.056;3.732;2023-02-28T15:05:24;7.80;69.70
21019;DHT22;10667;51.056;3.732;2023-02-28T15:08:04;7.60;69.40
21019;DHT22;10667;51.056;3.732;2023-02-28T15:10:30;7.60;71.00
21019;DHT22;10667;51.056;3.732;2023-02-28T15:13:05;7.50;72.80
21019;DHT22;10667;51.056;3.732;2023-02-28T15:18:05;7.60;73.00
21019;DHT22;10667;51.056;3.732;2023-02-28T15:20:33;7.60;74.60
21019;DHT22;10667;51.056;3.732;2023-02-28T15:23:01;7.60;71.60
21019;DHT22;10667;51.056;3.732;2023-02-28T15:25:27;7.70;71.40
21019;DHT22;10667;51.056;3.732;2023-02-28T15:27:55;7.70;71.80
21019;DHT22;10667;51.056;3.732;2023-02-28T15:30:28;7.70;73.10
21019;DHT22;10667;51.056;3.732;2023-02-28T15:35:38;7.60;71.50
21019;DHT22;10667;51.056;3.732;2023-02-28T15:38:25;7.60;73.00
21019;DHT22;10667;51.056;3.732;2023-02-28T15:40:57;7.50;73.70
21019;DHT22;10667;51.056;3.732;2023-02-28T15:48:30;7.60;73.60
21019;DHT22;10667;51.056;3.732;2023-02-28T15:51:02;7.60;73.50
21019;DHT22;10667;51.056;3.732;2023-02-28T15:53:48;7.50;75.40
21019;DHT22;10667;51.056;3.732;2023-02-28T15:56:31;7.50;75.40
21019;DHT22;10667;51.056;3.732;2023-02-28T15:59:02;7.40;78.80
21019;DHT22;10667;51.056;3.732;2023-02-28T16:01:29;7.30;78.30
21019;DHT22;10667;51.056;3.732;2023-02-28T16:03:59;7.50;77.30
21019;DHT22;10667;51.056;3.732;2023-02-28T16:06:41;7.40;79.60
21019;DHT22;10667;51.056;3.732;2023-02-28T16:09:16;7.40;77.10
21019;DHT22;10667;51.056;3.732;2023-02-28T16:11:45;7.40;77.20
21019;DHT22;10667;51.056;3.732;2023-02-28T16:14:20;7.50;76.70
21019;DHT22;10667;51.056;3.732;2023-02-28T16:16:50;7.40;77.20
21019;DHT22;10667;51.056;3.732;2023-02-28T16:19:17;7.50;77.40
21019;DHT22;10667;51.056;3.732;2023-02-28T16:21:43;7.50;78.30
21019;DHT22;10667;51.056;3.732;2023-02-28T16:24:09;7.40;78.30
21019;DHT22;10667;51.056;3.732;2023-02-28T16:26:36;7.40;77.40
21019;DHT22;10667;51.056;3.732;2023-02-28T16:29:05;7.50;77.20
21019;DHT22;10667;51.056;3.732;2023-02-28T16:31:32;7.50;77.30
21019;DHT22;10667;51.056;3.732;2023-02-28T16:34:00;7.50;78.60
21019;DHT22;10667;51.056;3.732;2023-02-28T16:36:26;7.40;79.50
21019;DHT22;10667;51.056;3.732;2023-02-28T16:38:54;7.30;78.60
21019;DHT22;10667;51.056;3.732;2023-02-28T16:41:22;7.20;80.00
21019;DHT22;10667;51.056;3.732;2023-02-28T16:43:52;7.10;81.00
21019;DHT22;10667;51.056;3.732;2023-02-28T16:46:19;7.20;79.80
21019;DHT22;10667;51.056;3.732;2023-02-28T16:48:47;7.20;79.20
21019;DHT22;10667;51.056;3.732;2023-02-28T16:51:17;7.10;80.50
21019;DHT22;10667;51.056;3.732;2023-02-28T16:53:44;7.10;80.30
21019;DHT22;10667;51.056;3.732;2023-02-28T16:56:24;7.10;80.90
21019;DHT22;10667;51.056;3.732;2023-02-28T16:58:51;7.10;81.30
21019;DHT22;10667;51.056;3.732;2023-02-28T17:01:20;7.00;80.80
21019;DHT22;10667;51.056;3.732;2023-02-28T17:03:48;7.00;81.40
21019;DHT22;10667;51.056;3.732;2023-02-28T17:06:23;7.10;81.40
21019;DHT22;10667;51.056;3.732;2023-02-28T17:08:50;7.00;82.70
21019;DHT22;10667;51.056;3.732;2023-02-28T17:11:17;7.00;82.60
21019;DHT22;10667;51.056;3.732;2023-02-28T17:13:43;7.00;83.50
21019;DHT22;10667;51.056;3.732;2023-02-28T17:16:17;6.90;85.10
21019;DHT22;10667;51.056;3.732;2023-02-28T17:18:45;6.80;85.20
21019;DHT22;10667;51.056;3.732;2023-02-28T17:21:19;6.70;85.70
21019;DHT22;10667;51.056;3.732;2023-02-28T17:23:45;6.80;85.50
21019;DHT22;10667;51.056;3.732;2023-02-28T17:26:17;6.90;85.60
21019;DHT22;10667;51.056;3.732;2023-02-28T17:28:48;6.80;85.90
21019;DHT22;10667;51.056;3.732;2023-02-28T17:31:14;6.80;86.30
21019;DHT22;10667;51.056;3.732;2023-02-28T17:33:40;6.80;85.90
21019;DHT22;10667;51.056;3.732;2023-02-28T17:36:08;6.70;86.60
21019;DHT22;10667;51.056;3.732;2023-02-28T17:38:35;6.60;87.80
21019;DHT22;10667;51.056;3.732;2023-02-28T17:41:01;6.60;88.20
21019;DHT22;10667;51.056;3.732;2023-02-28T17:43:27;6.60;88.90
21019;DHT22;10667;51.056;3.732;2023-02-28T17:45:53;6.50;89.30
21019;DHT22;10667;51.056;3.732;2023-02-28T17:48:19;6.60;89.00
21019;DHT22;10667;51.056;3.732;2023-02-28T17:50:45;6.50;90.00
21019;DHT22;10667;51.056;3.732;2023-02-28T17:53:11;6.50;90.10
21019;DHT22;10667;51.056;3.732;2023-02-28T17:55:37;6.50;90.20
21019;DHT22;10667;51.056;3.732;2023-02-28T17:58:03;6.40;90.50
21019;DHT22;10667;51.056;3.732;2023-02-28T18:00:29;6.40;91.10
21019;DHT22;10667;51.056;3.732;2023-02-28T18:02:57;6.50;90.50
21019;DHT22;10667;51.056;3.732;2023-02-28T18:05:23;6.50;90.30
21019;DHT22;10667;51.056;3.732;2023-02-28T18:07:49;6.50;90.70
21019;DHT22;10667;51.056;3.732;2023-02-28T18:10:20;6.50;91.20
21019;DHT22;10667;51.056;3.732;2023-02-28T18:12:50;6.50;91.10
21019;DHT22;10667;51.056;3.732;2023-02-28T18:15:18;6.40;91.50
21019;DHT22;10667;51.056;3.732;2023-02-28T18:17:48;6.50;91.40
21019;DHT22;10667;51.056;3.732;2023-02-28T18:20:14;6.40;91.40
21019;DHT22;10667;51.056;3.732;2023-02-28T18:22:41;6.40;91.60
21019;DHT22;10667;51.056;3.732;2023-02-28T18:25:09;6.50;91.90
21019;DHT22;10667;51.056;3.732;2023-02-28T18:27:39;6.40;91.80
21019;DHT22;10667;51.056;3.732;2023-02-28T18:30:05;6.40;91.90
21019;DHT22;10667;51.056;3.732;2023-02-28T18:32:31;6.30;92.30